Rhapsody Of The Seas — C6UA2 — position and weather

sailwx.info

Track history (hours):
 
Tides and Currents Weather Stations Pressure Air Temp Water Temp Dewpoint Dewpoint Depression Visibility Wind Speed Wind Dir Waves Ship Positions

Rhapsody Of The Seas

Last reported at 2017-Apr-24 04:00 UTC. Time now 2017-Apr-27 01:32 UTC.
Position N 18°48' W 086°00'.

Type: Passenger vessel. MMSI: 311805000.

Wind from 010 at 16 knots

Barometer 1010.0 mb
Air temperature 26.0 ° C
Visibility: greater than 10.8 NM
Dewpoint 21.8 ° C
Water temperature 26.0 ° C

Date/timePositionNaut miles runAvg speedWind from/ knotsBaromVisibWave heightAir tempDewpointWater temp
2017-Apr-24 04:00N 18°48' W 086°00'16716.7 010 / 161010.010.8 26.021.826.0
2017-Apr-23 18:00N 21°30' W 085°18'39520.0 340 / 111010.0 27.121.327.0
2017-Apr-22 22:13N 27°38' W 082°38'315.2
2017-Apr-22 22:00N 27°40' W 082°36'714.4
2017-Apr-22 21:30N 27°46' W 082°31'612.6
2017-Apr-22 21:00N 27°51' W 082°27'5 9.6
2017-Apr-22 20:30N 27°55' W 082°27'1 2.4
2017-Apr-22 20:00N 27°57' W 082°27'0 0.0
2017-Apr-22 19:30N 27°57' W 082°27'0 0.0
2017-Apr-22 19:00N 27°57' W 082°27'0 0.0
2017-Apr-22 18:30N 27°57' W 082°27'0 0.0
2017-Apr-22 18:00N 27°57' W 082°27'0 0.0
2017-Apr-22 17:30N 27°57' W 082°27'0 0.0
2017-Apr-22 17:00N 27°57' W 082°27'0 0.0
2017-Apr-22 16:30N 27°57' W 082°27'0 0.0
2017-Apr-22 16:00N 27°57' W 082°27'0 0.0
2017-Apr-22 15:30N 27°57' W 082°27'0 0.0
2017-Apr-22 15:00N 27°57' W 082°27'0 0.0
2017-Apr-22 14:30N 27°57' W 082°27'0 0.0
2017-Apr-22 13:30N 27°57' W 082°27'0 0.0
2017-Apr-22 13:00N 27°57' W 082°27'0 0.0
2017-Apr-22 12:30N 27°57' W 082°27'0 0.0
2017-Apr-22 12:00N 27°57' W 082°27'0 0.0
2017-Apr-22 11:30N 27°57' W 082°27'0 0.0
2017-Apr-22 11:00N 27°57' W 082°27'1 2.0
2017-Apr-22 10:30N 27°56' W 082°27'2 4.9
2017-Apr-22 10:00N 27°53' W 082°26'611.3
2017-Apr-22 09:30N 27°48' W 082°29'713.1
2017-Apr-22 09:01N 27°42' W 082°33'713.9
2017-Apr-22 08:29N 27°37' W 082°39'15512.4
2017-Apr-21 20:00N 25°24' W 084°06'27716.3 090 / 281011.0 24.917.726.0
2017-Apr-21 03:00N 21°18' W 086°24'5016.7 070 / 241012.0 24.019.627.0
2017-Apr-20 23:58N 20°37' W 086°56'816.9
2017-Apr-20 23:30N 20°30' W 086°59'1 2.2
2017-Apr-20 23:01N 20°29' W 086°59'0 0.0
2017-Apr-20 22:29N 20°29' W 086°59'0 0.0
2017-Apr-20 21:59N 20°29' W 086°59'0 0.0
2017-Apr-20 21:29N 20°29' W 086°59'0 0.0
2017-Apr-20 20:59N 20°29' W 086°59'0 0.0
2017-Apr-20 20:29N 20°29' W 086°59'0 0.0
2017-Apr-20 19:59N 20°29' W 086°59'0 0.0
2017-Apr-20 19:14N 20°29' W 086°59'0 0.0
2017-Apr-20 18:56N 20°29' W 086°59'0 0.0
2017-Apr-20 18:29N 20°29' W 086°59'0 0.0
2017-Apr-20 17:58N 20°29' W 086°59'0 0.0
2017-Apr-20 17:29N 20°29' W 086°59'0 0.0
2017-Apr-20 16:59N 20°29' W 086°59'0 0.0
2017-Apr-20 16:28N 20°29' W 086°59'0 0.0
2017-Apr-20 15:59N 20°29' W 086°59'0 0.0
2017-Apr-20 15:29N 20°29' W 086°59'0 0.0
2017-Apr-20 14:56N 20°29' W 086°59'0 0.0
2017-Apr-20 13:59N 20°29' W 086°59'0 0.0
2017-Apr-20 13:29N 20°29' W 086°59'0 0.0
2017-Apr-20 12:53N 20°29' W 086°59'0 0.0
2017-Apr-20 12:23N 20°29' W 086°59'0 0.0
2017-Apr-20 11:59N 20°29' W 086°59'0 0.7
2017-Apr-20 11:30N 20°29' W 086°59'3 6.8
2017-Apr-20 11:01N 20°27' W 087°02'5 9.4
2017-Apr-20 10:29N 20°24' W 087°06'78 9.2
2017-Apr-20 02:00N 19°06' W 087°06'112 4.3 080 / 231012.0 26.021.827.0
2017-Apr-19 00:00N 17°24' W 087°54'102 2.5 050 / 231012.0 25.721.927.0
2017-Apr-17 08:00N 17°54' W 086°12'41718.1 090 / 271013.0 27.021.324.0
2017-Apr-16 09:00N 24°36' W 084°12'14821.2 110 / 331022.0 5.4 24.018.022.0
2017-Apr-16 02:00N 26°54' W 083°12'168 4.7 040 / 121020.010.8 23.319.521.0
2017-Apr-14 14:00N 24°24' W 084°36'7418.4 090 / 251015.0 24.619.726.0
2017-Apr-14 10:00N 23°18' W 085°12'   090 / 301015.0 5.4 24.021.124.0
Track history (hours):
 
Tides and Currents Weather Stations Pressure Air Temp Water Temp Dewpoint Dewpoint Depression Visibility Wind Speed Wind Dir Waves Ship Positions

Rhapsody Of The Seas

Last reported at 2017-Apr-24 04:00 UTC. Time now 2017-Apr-27 01:32 UTC.
Position N 18°48' W 086°00'.

Type: Passenger vessel. MMSI: 311805000.

Wind from 010 at 16 knots

Barometer 1010.0 mb
Air temperature 26.0 ° C
Visibility: greater than 10.8 NM
Dewpoint 21.8 ° C
Water temperature 26.0 ° C

Date/timePositionNaut miles runAvg speedWind from/ knotsBaromVisibWave heightAir tempDewpointWater temp
2017-Apr-24 04:00N 18°48' W 086°00'16716.7 010 / 161010.010.8 26.021.826.0
2017-Apr-23 18:00N 21°30' W 085°18'39520.0 340 / 111010.0 27.121.327.0
2017-Apr-22 22:13N 27°38' W 082°38'315.2
2017-Apr-22 22:00N 27°40' W 082°36'714.4
2017-Apr-22 21:30N 27°46' W 082°31'612.6
2017-Apr-22 21:00N 27°51' W 082°27'5 9.6
2017-Apr-22 20:30N 27°55' W 082°27'1 2.4
2017-Apr-22 20:00N 27°57' W 082°27'0 0.0
2017-Apr-22 19:30N 27°57' W 082°27'0 0.0
2017-Apr-22 19:00N 27°57' W 082°27'0 0.0
2017-Apr-22 18:30N 27°57' W 082°27'0 0.0
2017-Apr-22 18:00N 27°57' W 082°27'0 0.0
2017-Apr-22 17:30N 27°57' W 082°27'0 0.0
2017-Apr-22 17:00N 27°57' W 082°27'0 0.0
2017-Apr-22 16:30N 27°57' W 082°27'0 0.0
2017-Apr-22 16:00N 27°57' W 082°27'0 0.0
2017-Apr-22 15:30N 27°57' W 082°27'0 0.0
2017-Apr-22 15:00N 27°57' W 082°27'0 0.0
2017-Apr-22 14:30N 27°57' W 082°27'0 0.0
2017-Apr-22 13:30N 27°57' W 082°27'0 0.0
2017-Apr-22 13:00N 27°57' W 082°27'0 0.0
2017-Apr-22 12:30N 27°57' W 082°27'0 0.0
2017-Apr-22 12:00N 27°57' W 082°27'0 0.0
2017-Apr-22 11:30N 27°57' W 082°27'0 0.0
2017-Apr-22 11:00N 27°57' W 082°27'1 2.0
2017-Apr-22 10:30N 27°56' W 082°27'2 4.9
2017-Apr-22 10:00N 27°53' W 082°26'611.3
2017-Apr-22 09:30N 27°48' W 082°29'713.1
2017-Apr-22 09:01N 27°42' W 082°33'713.9
2017-Apr-22 08:29N 27°37' W 082°39'15512.4
2017-Apr-21 20:00N 25°24' W 084°06'27716.3 090 / 281011.0 24.917.726.0
2017-Apr-21 03:00N 21°18' W 086°24'5016.7 070 / 241012.0 24.019.627.0
2017-Apr-20 23:58N 20°37' W 086°56'816.9
2017-Apr-20 23:30N 20°30' W 086°59'1 2.2
2017-Apr-20 23:01N 20°29' W 086°59'0 0.0
2017-Apr-20 22:29N 20°29' W 086°59'0 0.0
2017-Apr-20 21:59N 20°29' W 086°59'0 0.0
2017-Apr-20 21:29N 20°29' W 086°59'0 0.0
2017-Apr-20 20:59N 20°29' W 086°59'0 0.0
2017-Apr-20 20:29N 20°29' W 086°59'0 0.0
2017-Apr-20 19:59N 20°29' W 086°59'0 0.0
2017-Apr-20 19:14N 20°29' W 086°59'0 0.0
2017-Apr-20 18:56N 20°29' W 086°59'0 0.0
2017-Apr-20 18:29N 20°29' W 086°59'0 0.0
2017-Apr-20 17:58N 20°29' W 086°59'0 0.0
2017-Apr-20 17:29N 20°29' W 086°59'0 0.0
2017-Apr-20 16:59N 20°29' W 086°59'0 0.0
2017-Apr-20 16:28N 20°29' W 086°59'0 0.0
2017-Apr-20 15:59N 20°29' W 086°59'0 0.0
2017-Apr-20 15:29N 20°29' W 086°59'0 0.0
2017-Apr-20 14:56N 20°29' W 086°59'0 0.0
2017-Apr-20 13:59N 20°29' W 086°59'0 0.0
2017-Apr-20 13:29N 20°29' W 086°59'0 0.0
2017-Apr-20 12:53N 20°29' W 086°59'0 0.0
2017-Apr-20 12:23N 20°29' W 086°59'0 0.0
2017-Apr-20 11:59N 20°29' W 086°59'0 0.7
2017-Apr-20 11:30N 20°29' W 086°59'3 6.8
2017-Apr-20 11:01N 20°27' W 087°02'5 9.4
2017-Apr-20 10:29N 20°24' W 087°06'78 9.2
2017-Apr-20 02:00N 19°06' W 087°06'112 4.3 080 / 231012.0 26.021.827.0
2017-Apr-19 00:00N 17°24' W 087°54'102 2.5 050 / 231012.0 25.721.927.0
2017-Apr-17 08:00N 17°54' W 086°12'41718.1 090 / 271013.0 27.021.324.0
2017-Apr-16 09:00N 24°36' W 084°12'14821.2 110 / 331022.0 5.4 24.018.022.0
2017-Apr-16 02:00N 26°54' W 083°12'168 4.7 040 / 121020.010.8 23.319.521.0
2017-Apr-14 14:00N 24°24' W 084°36'7418.4 090 / 251015.0 24.619.726.0
2017-Apr-14 10:00N 23°18' W 085°12'   090 / 301015.0 5.4 24.021.124.0

Dump ship's entire track history